Time;durP1;ratioP1;P1;durP2;ratioP2;P2;SDS_P1;SDS_P2;PMS_P1;PMS_P2;Temp;Humidity;BMP_temperature;BMP_pressure;BME280_temperature;BME280_humidity;BME280_pressure;Samples;Min_cycle;Max_cycle;Signal;HPM_P1;HPM_P2
2021/05/19 00:01:38;;;;;;;5.47;3.05;;;7.40;99.90;;;;;;5118043;28;20042;-72
2021/05/19 00:04:07;;;;;;;8.27;3.42;;;7.40;99.90;;;;;;5118439;28;20047;-72
2021/05/19 00:06:36;;;;;;;5.95;2.95;;;7.30;99.90;;;;;;5119459;28;20354;-72
2021/05/19 00:09:09;;;;;;;8.52;3.22;;;7.30;99.90;;;;;;5119106;28;20028;-72
2021/05/19 00:11:37;;;;;;;9.20;3.60;;;7.20;99.90;;;;;;5118746;28;20019;-72
2021/05/19 00:14:07;;;;;;;9.25;4.13;;;7.10;99.90;;;;;;5118731;28;20016;-72
2021/05/19 00:16:35;;;;;;;11.27;4.57;;;7.00;99.90;;;;;;5118714;28;20020;-72
2021/05/19 00:19:03;;;;;;;8.02;4.43;;;6.90;99.90;;;;;;5119041;28;20016;-72
2021/05/19 00:21:31;;;;;;;7.93;4.35;;;6.80;99.90;;;;;;5118606;28;20031;-72
2021/05/19 00:23:59;;;;;;;10.45;5.82;;;6.70;99.90;;;;;;5119119;28;20027;-72
2021/05/19 00:26:26;;;;;;;8.88;5.57;;;6.70;99.90;;;;;;5082852;28;20027;-72
2021/05/19 00:28:56;;;;;;;9.55;5.20;;;6.60;99.90;;;;;;5100197;28;20027;-72
2021/05/19 00:31:25;;;;;;;9.55;5.00;;;6.60;99.90;;;;;;5117933;28;20030;-72
2021/05/19 00:33:53;;;;;;;11.40;5.30;;;6.50;99.90;;;;;;5117498;28;20413;-72
2021/05/19 00:36:21;;;;;;;10.85;6.20;;;6.50;99.90;;;;;;5117362;28;20101;-72
2021/05/19 00:38:49;;;;;;;12.88;6.72;;;6.40;99.90;;;;;;5099293;28;20047;-72
2021/05/19 00:41:17;;;;;;;12.82;6.45;;;6.30;99.90;;;;;;5117865;28;20439;-72
2021/05/19 00:43:45;;;;;;;10.65;5.88;;;6.30;99.90;;;;;;5117894;28;20026;-72
2021/05/19 00:46:12;;;;;;;16.35;6.38;;;6.30;99.90;;;;;;5117218;28;20357;-72
2021/05/19 00:48:40;;;;;;;9.82;4.93;;;6.20;99.90;;;;;;5117962;28;20048;-72
2021/05/19 00:51:07;;;;;;;10.40;5.32;;;6.20;99.90;;;;;;5118075;28;20354;-72
2021/05/19 00:53:35;;;;;;;10.23;5.70;;;6.20;99.90;;;;;;5099834;28;20487;-72
2021/05/19 00:56:04;;;;;;;14.38;5.95;;;6.20;99.90;;;;;;5117716;28;20407;-72
2021/05/19 00:58:33;;;;;;;10.38;5.60;;;6.20;99.90;;;;;;5118265;28;20027;-72
2021/05/19 01:01:00;;;;;;;10.23;5.88;;;6.20;99.90;;;;;;5119044;28;20307;-72
2021/05/19 01:03:28;;;;;;;11.95;5.28;;;6.20;99.90;;;;;;5099118;28;20023;-72
2021/05/19 01:06:00;;;;;;;11.25;6.28;;;6.20;99.90;;;;;;5117945;28;20051;-72
2021/05/19 01:11:18;;;;;;;10.32;6.28;;;6.10;99.90;;;;;;5117439;28;20046;-72
2021/05/19 01:13:48;;;;;;;13.98;6.50;;;6.10;99.90;;;;;;5116968;28;20020;-72
2021/05/19 01:16:16;;;;;;;12.70;6.25;;;6.10;99.90;;;;;;5116867;28;20016;-72
2021/05/19 01:18:44;;;;;;;15.05;6.78;;;6.10;99.90;;;;;;5117438;28;20024;-72
2021/05/19 01:21:12;;;;;;;15.60;7.97;;;6.20;99.90;;;;;;5116820;28;20019;-72
2021/05/19 01:23:41;;;;;;;13.38;7.75;;;6.20;99.90;;;;;;5098793;28;20114;-72
2021/05/19 01:26:13;;;;;;;17.90;8.13;;;6.30;99.90;;;;;;5116765;28;20024;-72
2021/05/19 01:28:43;;;;;;;15.32;7.82;;;6.40;99.90;;;;;;5098836;28;20446;-72
2021/05/19 01:31:11;;;;;;;15.40;7.82;;;6.40;99.90;;;;;;5099639;28;20028;-72
2021/05/19 01:33:39;;;;;;;14.90;7.97;;;6.50;99.90;;;;;;5099788;28;20027;-72
2021/05/19 01:36:07;;;;;;;19.10;8.50;;;6.50;99.90;;;;;;5117564;28;20031;-72
2021/05/19 01:38:35;;;;;;;14.13;8.18;;;6.50;99.90;;;;;;5099576;28;20026;-72
2021/05/19 01:41:03;;;;;;;17.42;7.57;;;6.40;99.90;;;;;;5115687;28;20024;-72
2021/05/19 01:43:32;;;;;;;16.15;8.48;;;6.40;99.90;;;;;;5117621;28;20098;-72
2021/05/19 01:46:01;;;;;;;20.70;10.80;;;6.40;99.90;;;;;;5099527;28;20024;-72
2021/05/19 01:48:31;;;;;;;20.33;10.57;;;6.40;99.90;;;;;;5098236;28;20024;-72
2021/05/19 01:50:59;;;;;;;33.53;17.08;;;6.40;99.90;;;;;;5116244;28;20062;-72
2021/05/19 01:53:29;;;;;;;37.33;16.88;;;6.40;99.90;;;;;;5116505;28;20096;-72
2021/05/19 01:56:00;;;;;;;37.53;17.60;;;6.40;99.90;;;;;;5116537;28;20031;-72
2021/05/19 01:58:28;;;;;;;40.88;17.50;;;6.50;99.90;;;;;;5114769;28;20062;-72
2021/05/19 02:00:57;;;;;;;37.38;17.48;;;6.50;99.90;;;;;;5116394;28;20050;-72
2021/05/19 02:03:25;;;;;;;38.38;18.67;;;6.60;99.90;;;;;;5116998;28;20026;-72
2021/05/19 02:05:55;;;;;;;39.55;19.25;;;6.70;99.90;;;;;;5117748;28;20110;-72
2021/05/19 02:08:23;;;;;;;33.60;16.92;;;6.80;99.90;;;;;;5120530;28;20027;-72
2021/05/19 02:10:51;;;;;;;38.97;18.75;;;6.80;99.90;;;;;;5121380;28;20028;-72
2021/05/19 02:13:19;;;;;;;38.50;17.30;;;6.90;99.90;;;;;;5121024;28;20023;-72
2021/05/19 02:15:47;;;;;;;31.65;16.70;;;7.00;99.90;;;;;;5121374;28;20485;-72
2021/05/19 02:18:15;;;;;;;32.88;16.77;;;7.00;99.90;;;;;;5121513;28;20028;-72
2021/05/19 02:20:43;;;;;;;28.42;15.80;;;7.10;99.90;;;;;;5121061;28;20020;-72
2021/05/19 02:23:11;;;;;;;33.38;16.70;;;7.00;99.90;;;;;;5102807;28;20031;-72
2021/05/19 02:25:39;;;;;;;33.08;16.23;;;7.00;99.90;;;;;;5102826;28;20062;-72
2021/05/19 02:28:07;;;;;;;32.42;16.58;;;7.00;99.90;;;;;;5120818;28;20032;-72
2021/05/19 02:30:35;;;;;;;29.65;16.23;;;7.00;99.90;;;;;;5101050;28;20430;-72
2021/05/19 02:33:13;;;;;;;29.52;15.85;;;7.00;99.90;;;;;;5119662;28;20024;-72
2021/05/19 02:35:41;;;;;;;30.70;16.05;;;6.90;99.90;;;;;;5119682;28;20399;-72
2021/05/19 02:38:09;;;;;;;25.65;13.18;;;6.90;99.90;;;;;;5119683;28;20020;-72
2021/05/19 02:40:36;;;;;;;19.98;10.52;;;6.90;99.90;;;;;;5119713;28;20026;-72
2021/05/19 02:43:04;;;;;;;19.42;9.40;;;6.80;99.90;;;;;;5119586;28;20030;-72
2021/05/19 02:45:31;;;;;;;14.20;9.15;;;6.70;99.90;;;;;;5120156;28;20023;-72
2021/05/19 02:47:59;;;;;;;17.40;10.07;;;6.50;99.90;;;;;;5119800;28;20034;-72
2021/05/19 02:50:26;;;;;;;17.23;9.85;;;6.40;99.90;;;;;;5119191;28;20100;-72
2021/05/19 02:52:54;;;;;;;16.17;9.52;;;6.30;99.90;;;;;;5120199;28;20357;-71
2021/05/19 02:55:22;;;;;;;21.88;10.45;;;6.20;99.90;;;;;;5120476;28;20042;-72
2021/05/19 02:57:50;;;;;;;20.17;11.38;;;6.10;99.90;;;;;;5120322;28;20411;-72
2021/05/19 03:00:18;;;;;;;23.27;12.02;;;6.00;99.90;;;;;;5120201;28;20048;-72
2021/05/19 03:02:47;;;;;;;20.17;11.60;;;6.00;99.90;;;;;;5120772;28;20026;-72
2021/05/19 03:05:14;;;;;;;16.27;9.65;;;5.90;99.90;;;;;;5120065;28;20434;-72
2021/05/19 03:07:44;;;;;;;20.42;11.13;;;5.80;99.90;;;;;;5101980;28;20432;-72
2021/05/19 03:10:13;;;;;;;20.95;10.93;;;5.70;99.90;;;;;;5119817;28;20027;-72
2021/05/19 03:12:41;;;;;;;31.42;14.77;;;5.70;99.90;;;;;;5119009;28;20020;-72
2021/05/19 03:15:10;;;;;;;37.92;16.98;;;5.70;99.90;;;;;;5100856;28;20023;-72
2021/05/19 03:17:38;;;;;;;41.53;18.35;;;5.70;99.90;;;;;;5118930;28;20020;-72
2021/05/19 03:20:06;;;;;;;39.20;17.75;;;5.80;99.90;;;;;;5100685;28;20019;-72
2021/05/19 03:22:34;;;;;;;35.83;16.95;;;5.80;99.90;;;;;;5119118;28;20456;-72
2021/05/19 03:25:03;;;;;;;35.72;16.83;;;5.90;99.90;;;;;;5118796;28;20435;-72
2021/05/19 03:27:30;;;;;;;28.25;14.32;;;5.90;99.90;;;;;;5116853;28;20411;-72
2021/05/19 03:29:58;;;;;;;20.38;11.38;;;5.90;99.90;;;;;;5119296;28;20023;-72
2021/05/19 03:32:26;;;;;;;15.05;9.15;;;5.90;99.90;;;;;;5099298;28;20118;-72
2021/05/19 03:34:54;;;;;;;18.23;9.10;;;5.80;99.90;;;;;;5101368;28;20316;-72
2021/05/19 03:37:22;;;;;;;16.98;9.90;;;5.70;99.90;;;;;;5119771;28;20020;-72
2021/05/19 03:39:50;;;;;;;14.32;8.90;;;5.60;99.90;;;;;;5119645;28;20472;-72
2021/05/19 03:42:18;;;;;;;18.25;10.50;;;5.50;99.90;;;;;;5101407;28;20403;-72
2021/05/19 03:44:46;;;;;;;20.77;10.65;;;5.40;99.90;;;;;;5099427;28;20015;-72
2021/05/19 03:47:14;;;;;;;21.45;10.88;;;5.40;99.90;;;;;;5119804;28;20318;-72
2021/05/19 03:49:41;;;;;;;23.83;12.43;;;5.40;99.90;;;;;;5101295;28;20020;-72
2021/05/19 03:52:09;;;;;;;20.88;11.90;;;5.30;99.90;;;;;;5095219;28;20139;-72
2021/05/19 03:54:38;;;;;;;20.63;11.07;;;5.30;99.90;;;;;;5097097;28;20054;-72
2021/05/19 03:57:07;;;;;;;20.40;10.52;;;5.30;99.90;;;;;;5098292;28;20393;-72
2021/05/19 03:59:35;;;;;;;16.77;9.43;;;5.30;99.90;;;;;;5095991;28;20023;-72
2021/05/19 04:02:03;;;;;;;17.83;8.93;;;5.30;99.90;;;;;;5097883;28;20020;-72
2021/05/19 04:04:31;;;;;;;14.15;7.85;;;5.20;99.90;;;;;;5097617;28;20022;-72
2021/05/19 04:06:58;;;;;;;12.07;7.18;;;5.20;99.90;;;;;;5113417;28;20027;-72
2021/05/19 04:09:26;;;;;;;11.68;7.57;;;5.20;99.90;;;;;;5097527;28;20033;-72
2021/05/19 04:11:54;;;;;;;13.07;7.30;;;5.10;99.90;;;;;;5096461;28;20358;-72
2021/05/19 04:14:22;;;;;;;12.30;7.68;;;5.00;99.90;;;;;;5098411;28;20040;-72
2021/05/19 04:16:50;;;;;;;14.15;9.05;;;5.00;99.90;;;;;;5098424;28;20032;-72
2021/05/19 04:19:18;;;;;;;14.13;7.88;;;5.00;99.90;;;;;;5098303;28;20056;-72
2021/05/19 04:21:45;;;;;;;12.57;7.88;;;5.00;99.90;;;;;;5098239;28;20420;-72
2021/05/19 04:24:14;;;;;;;12.85;7.60;;;5.00;99.90;;;;;;5098936;28;20062;-72
2021/05/19 04:26:42;;;;;;;15.57;7.70;;;5.00;99.90;;;;;;5098774;28;20050;-72
2021/05/19 04:29:10;;;;;;;14.40;7.97;;;5.00;99.90;;;;;;5096200;28;20024;-72
2021/05/19 04:31:38;;;;;;;13.10;8.10;;;5.00;99.90;;;;;;5098181;28;20024;-72
2021/05/19 04:34:06;;;;;;;13.73;8.02;;;5.00;99.90;;;;;;5094829;28;20020;-74
2021/05/19 04:36:34;;;;;;;15.85;9.80;;;5.00;99.90;;;;;;5097021;28;20016;-72
2021/05/19 04:39:02;;;;;;;17.42;10.10;;;5.00;99.90;;;;;;5095938;28;20063;-73
2021/05/19 04:41:30;;;;;;;19.60;10.50;;;5.10;99.90;;;;;;5097201;28;20020;-73
2021/05/19 04:43:57;;;;;;;20.13;11.52;;;5.20;99.90;;;;;;5097002;28;20063;-72
2021/05/19 04:46:25;;;;;;;21.92;12.18;;;5.30;99.90;;;;;;5096879;28;20088;-73
2021/05/19 04:48:58;;;;;;;22.00;12.68;;;5.40;99.90;;;;;;5097077;28;20012;-72
2021/05/19 04:51:27;;;;;;;23.17;13.07;;;5.50;99.90;;;;;;5108428;28;20048;-73
2021/05/19 04:53:56;;;;;;;28.98;14.63;;;5.60;99.90;;;;;;5117554;28;20011;-73
2021/05/19 04:56:23;;;;;;;28.17;14.63;;;5.70;99.90;;;;;;5099546;28;20023;-72
2021/05/19 04:58:51;;;;;;;26.20;12.60;;;5.80;99.90;;;;;;5118181;28;20071;-72
2021/05/19 05:01:19;;;;;;;22.40;12.80;;;5.90;99.90;;;;;;5118259;28;20016;-73
2021/05/19 05:03:47;;;;;;;23.75;14.02;;;6.10;99.90;;;;;;5118035;28;20030;-72
2021/05/19 05:06:15;;;;;;;21.85;12.68;;;6.10;99.90;;;;;;5116999;28;20327;-72
2021/05/19 05:08:42;;;;;;;21.17;12.23;;;6.20;99.90;;;;;;5118194;28;20091;-72
2021/05/19 05:11:09;;;;;;;24.85;13.02;;;6.30;99.90;;;;;;5117862;28;20020;-72
2021/05/19 05:13:37;;;;;;;24.02;13.07;;;6.40;99.90;;;;;;5099371;28;20054;-70
2021/05/19 05:16:05;;;;;;;21.52;11.93;;;6.60;99.90;;;;;;5098805;28;20051;-75
2021/05/19 05:18:40;;;;;;;22.73;12.82;;;6.70;99.90;;;;;;5098775;28;20024;-71
2021/05/19 05:21:10;;;;;;;20.27;12.02;;;6.90;99.90;;;;;;5117315;28;20024;-72
2021/05/19 05:23:37;;;;;;;15.80;9.77;;;7.20;99.90;;;;;;5116778;28;20032;-71
2021/05/19 05:26:05;;;;;;;15.95;10.20;;;7.40;99.90;;;;;;5116983;28;20065;-71
2021/05/19 05:28:33;;;;;;;14.52;9.88;;;7.70;99.90;;;;;;5117179;28;20098;-72
2021/05/19 05:31:01;;;;;;;16.48;10.35;;;7.90;99.90;;;;;;5115999;28;20020;-71
2021/05/19 05:33:30;;;;;;;13.45;9.15;;;8.10;99.90;;;;;;5117003;28;20023;-72
2021/05/19 05:35:58;;;;;;;18.27;10.35;;;8.30;99.90;;;;;;5097744;28;20032;-71
2021/05/19 05:38:25;;;;;;;21.42;11.18;;;8.50;99.90;;;;;;5118207;28;20031;-72
2021/05/19 05:40:53;;;;;;;20.23;12.98;;;8.60;99.90;;;;;;5119046;28;20019;-72
2021/05/19 05:43:21;;;;;;;24.02;14.23;;;8.70;99.90;;;;;;5103798;28;20031;-71
2021/05/19 05:45:48;;;;;;;21.33;14.05;;;8.80;99.90;;;;;;5121735;28;20425;-71
2021/05/19 05:48:16;;;;;;;24.33;14.00;;;9.00;99.90;;;;;;5103566;28;20126;-71
2021/05/19 05:50:44;;;;;;;23.33;13.75;;;9.20;99.90;;;;;;5121516;28;20062;-71
2021/05/19 05:53:12;;;;;;;20.67;13.30;;;9.30;99.90;;;;;;5103263;28;20027;-72
2021/05/19 05:55:40;;;;;;;23.15;13.55;;;9.40;99.90;;;;;;5120530;28;20055;-74
2021/05/19 05:58:08;;;;;;;24.05;12.82;;;9.50;99.90;;;;;;5119845;28;20114;-71
2021/05/19 06:00:36;;;;;;;19.13;12.43;;;9.60;99.90;;;;;;5120514;28;20337;-72
2021/05/19 06:03:07;;;;;;;19.55;13.18;;;9.80;99.90;;;;;;5120603;28;20023;-71
2021/05/19 06:05:35;;;;;;;18.95;12.68;;;10.00;99.90;;;;;;5120370;28;20483;-71
2021/05/19 06:08:05;;;;;;;16.75;11.40;;;10.10;99.90;;;;;;5120378;28;20034;-71
2021/05/19 06:10:34;;;;;;;17.10;11.68;;;10.30;99.90;;;;;;5120348;28;20023;-72
2021/05/19 06:13:02;;;;;;;18.67;12.38;;;10.40;99.90;;;;;;5120963;28;20099;-71
2021/05/19 06:15:30;;;;;;;17.33;12.10;;;10.50;99.90;;;;;;5102548;28;20031;-71
2021/05/19 06:17:58;;;;;;;17.23;10.82;;;10.50;99.90;;;;;;5121441;28;20479;-72
2021/05/19 06:20:26;;;;;;;19.27;11.32;;;10.50;99.90;;;;;;5121308;28;20035;-72
2021/05/19 06:22:53;;;;;;;15.80;11.05;;;10.60;99.90;;;;;;5121181;28;20023;-72
2021/05/19 06:25:20;;;;;;;15.07;10.43;;;10.70;99.90;;;;;;5121010;28;20050;-72
2021/05/19 06:27:48;;;;;;;18.40;11.32;;;10.80;99.90;;;;;;5121373;28;20020;-72
2021/05/19 06:30:16;;;;;;;14.23;10.40;;;10.80;99.90;;;;;;5102767;28;20024;-73
2021/05/19 06:32:44;;;;;;;15.40;10.45;;;10.90;99.90;;;;;;5102761;28;20031;-72
2021/05/19 06:35:12;;;;;;;14.93;9.85;;;11.10;99.90;;;;;;5120000;28;20076;-72
2021/05/19 06:37:39;;;;;;;15.20;9.60;;;11.20;99.90;;;;;;5120114;28;20098;-72
2021/05/19 06:40:07;;;;;;;14.98;10.15;;;11.30;99.90;;;;;;5101606;28;20031;-73
2021/05/19 06:42:34;;;;;;;19.08;11.57;;;11.50;99.90;;;;;;5119889;28;20016;-72
2021/05/19 06:45:02;;;;;;;15.77;10.07;;;11.60;99.90;;;;;;5101876;28;20046;-72
2021/05/19 06:47:30;;;;;;;15.50;10.73;;;11.70;99.90;;;;;;5119600;28;20315;-72
2021/05/19 06:49:57;;;;;;;14.60;9.32;;;11.60;99.90;;;;;;5119465;28;20065;-72
2021/05/19 06:52:25;;;;;;;14.20;9.32;;;11.60;99.90;;;;;;5118281;28;20059;-72
2021/05/19 06:54:53;;;;;;;12.68;8.18;;;11.60;99.90;;;;;;5120300;28;20332;-70
2021/05/19 06:57:21;;;;;;;12.75;8.15;;;11.60;99.90;;;;;;5118338;28;20088;-72
2021/05/19 06:59:51;;;;;;;12.30;8.23;;;11.60;99.90;;;;;;5120788;28;20404;-73
2021/05/19 07:02:18;;;;;;;12.30;8.07;;;11.60;99.90;;;;;;5119913;28;20034;-73
2021/05/19 07:04:46;;;;;;;12.63;7.72;;;11.70;99.90;;;;;;5102272;28;20061;-73
2021/05/19 07:07:14;;;;;;;13.30;7.72;;;11.70;99.90;;;;;;5120259;28;20040;-73
2021/05/19 07:09:42;;;;;;;11.77;7.25;;;11.90;99.90;;;;;;5102151;28;20055;-73
2021/05/19 07:12:11;;;;;;;11.32;8.18;;;12.00;99.90;;;;;;5119989;28;20020;-72
2021/05/19 07:14:46;;;;;;;10.23;7.18;;;12.10;99.90;;;;;;5119809;28;20034;-72
2021/05/19 07:17:14;;;;;;;;;;;12.20;99.90;;;;;;5119432;28;20019;-72
2021/05/19 07:19:42;;;;;;;9.32;6.18;;;12.40;99.90;;;;;;5119352;28;19955;-73
2021/05/19 07:22:09;;;;;;;9.25;5.75;;;12.50;99.90;;;;;;5118843;28;20045;-73
2021/05/19 07:24:38;;;;;;;10.93;5.93;;;12.70;99.90;;;;;;5101006;28;20034;-73
2021/05/19 07:27:06;;;;;;;10.80;6.93;;;12.90;99.90;;;;;;5118815;28;20041;-73
2021/05/19 07:29:34;;;;;;;8.23;5.63;;;13.00;99.90;;;;;;5117028;28;20364;-73
2021/05/19 07:32:02;;;;;;;10.93;6.07;;;13.10;99.90;;;;;;5100618;28;20319;-73
2021/05/19 07:34:30;;;;;;;9.85;6.85;;;13.10;99.90;;;;;;5119289;28;20015;-73
2021/05/19 07:36:58;;;;;;;10.30;5.95;;;13.20;99.90;;;;;;5100935;28;20034;-73
2021/05/19 07:39:26;;;;;;;11.32;7.00;;;13.20;99.90;;;;;;5101462;28;20023;-73
2021/05/19 07:41:55;;;;;;;10.45;7.07;;;13.30;99.90;;;;;;5117504;28;20035;-73
2021/05/19 07:44:22;;;;;;;12.38;6.60;;;13.30;99.90;;;;;;5119622;28;20056;-72
2021/05/19 07:46:50;;;;;;;8.82;5.88;;;13.30;99.90;;;;;;5119917;28;20102;-72
2021/05/19 07:49:18;;;;;;;8.80;5.93;;;13.20;99.90;;;;;;5119445;28;20023;-73
2021/05/19 07:51:46;;;;;;;9.55;5.53;;;13.20;99.90;;;;;;5119171;28;20097;-72
2021/05/19 07:54:23;;;;;;;9.23;6.25;;;13.30;99.90;;;;;;5119224;28;20015;-72
2021/05/19 07:57:09;;;;;;;12.02;6.20;;;13.30;99.90;;;;;;5118813;28;20027;-72
2021/05/19 07:59:38;;;;;;;9.73;5.97;;;13.40;99.90;;;;;;5118925;28;20058;-71
2021/05/19 08:02:12;;;;;;;10.35;6.32;;;13.50;99.90;;;;;;5118570;28;20032;-71
2021/05/19 08:04:40;;;;;;;8.05;5.22;;;13.50;99.90;;;;;;5099708;28;20087;-72
2021/05/19 08:07:08;;;;;;;10.07;5.57;;;13.50;99.90;;;;;;5118567;28;20026;-72
2021/05/19 08:09:36;;;;;;;9.63;6.38;;;13.50;99.90;;;;;;5118719;28;20015;-72
2021/05/19 08:12:04;;;;;;;10.73;5.90;;;13.30;99.90;;;;;;5117898;28;20019;-79
2021/05/19 08:14:32;;;;;;;8.40;5.10;;;13.30;99.90;;;;;;5099852;28;20339;-72
2021/05/19 08:17:00;;;;;;;8.27;6.00;;;13.20;99.90;;;;;;5118708;28;20319;-72
2021/05/19 08:19:28;;;;;;;10.98;5.75;;;13.20;99.90;;;;;;5118776;28;20027;-73
2021/05/19 08:21:56;;;;;;;10.75;6.63;;;13.20;99.90;;;;;;5100530;28;20292;-73
2021/05/19 08:24:24;;;;;;;12.73;6.45;;;13.30;99.90;;;;;;5118709;28;20026;-73
2021/05/19 08:26:54;;;;;;;10.00;6.65;;;13.50;99.90;;;;;;5119144;28;20020;-72
2021/05/19 08:29:21;;;;;;;9.70;5.95;;;13.50;99.90;;;;;;5118772;28;20411;-72
2021/05/19 08:31:49;;;;;;;10.60;6.95;;;13.60;99.90;;;;;;5100461;28;20024;-72
2021/05/19 08:34:17;;;;;;;11.27;6.63;;;13.70;99.90;;;;;;5118728;28;20016;-72
2021/05/19 08:36:44;;;;;;;10.85;6.40;;;13.80;99.90;;;;;;5118017;28;20016;-73
2021/05/19 08:39:12;;;;;;;10.93;6.15;;;13.80;99.90;;;;;;5117626;28;20020;-73
2021/05/19 08:41:45;;;;;;;10.07;5.80;;;13.70;99.90;;;;;;5117359;28;20041;-72
2021/05/19 08:44:13;;;;;;;9.60;6.07;;;13.70;99.90;;;;;;5117433;28;20103;-73
2021/05/19 08:46:50;;;;;;;10.95;6.53;;;13.60;99.90;;;;;;5117352;28;20015;-73
2021/05/19 08:49:18;;;;;;;11.27;6.75;;;13.60;99.90;;;;;;5117445;28;20153;-73
2021/05/19 08:51:46;;;;;;;9.73;5.80;;;13.50;99.90;;;;;;5117105;28;20453;-73
2021/05/19 08:54:17;;;;;;;8.93;6.03;;;13.60;99.90;;;;;;5117511;28;20019;-73
2021/05/19 08:56:49;;;;;;;11.70;5.70;;;13.70;99.90;;;;;;5117530;28;20099;-73
2021/05/19 08:59:19;;;;;;;11.40;6.70;;;13.80;99.90;;;;;;5117789;28;20124;-73
2021/05/19 09:01:52;;;;;;;11.00;6.32;;;13.90;99.90;;;;;;5117849;28;20376;-73
2021/05/19 09:04:24;;;;;;;10.38;6.15;;;13.80;99.90;;;;;;5118461;28;20055;-73
2021/05/19 09:06:58;;;;;;;11.13;6.55;;;13.80;99.90;;;;;;5118021;28;20094;-73
2021/05/19 09:09:31;;;;;;;12.82;6.75;;;13.70;99.90;;;;;;5117900;28;20047;-73
2021/05/19 09:12:10;;;;;;;12.43;6.20;;;13.60;99.90;;;;;;5118373;28;20085;-73
2021/05/19 09:14:39;;;;;;;11.07;6.35;;;13.50;99.90;;;;;;5117825;28;20027;-73
2021/05/19 09:17:25;;;;;;;13.10;6.38;;;13.60;99.90;;;;;;5118015;28;20419;-73
2021/05/19 09:20:01;;;;;;;10.68;6.22;;;13.80;99.90;;;;;;5117525;28;20094;-73
2021/05/19 09:22:35;;;;;;;11.80;6.15;;;14.00;99.90;;;;;;5116887;28;20435;-73
2021/05/19 09:25:21;;;;;;;13.65;6.35;;;14.30;99.90;;;;;;5117649;28;20028;-73
2021/05/19 09:27:49;;;;;;;;;;;14.50;99.90;;;;;;5117341;28;20019;-73
2021/05/19 09:30:37;;;;;;;9.77;4.97;;;14.80;99.90;;;;;;5116784;28;19908;-73
2021/05/19 09:33:24;;;;;;;10.52;5.18;;;14.90;99.20;;;;;;5117524;28;20069;-73
2021/05/19 09:36:09;;;;;;;;;;;15.10;97.60;;;;;;5117148;28;20032;-72
2021/05/19 09:38:37;;;;;;;6.80;3.38;;;15.10;96.10;;;;;;5116823;28;20256;-72
2021/05/19 09:41:24;;;;;;;10.88;4.60;;;15.10;94.10;;;;;;5118048;28;20023;-73
2021/05/19 09:43:55;;;;;;;8.65;5.20;;;15.20;94.40;;;;;;5118053;28;20031;-73
2021/05/19 09:49:22;;;;;;;10.45;5.78;;;15.30;95.80;;;;;;5117983;28;20020;-72
2021/05/19 09:51:52;;;;;;;11.93;5.40;;;15.50;97.00;;;;;;5117341;28;20043;-72
2021/05/19 09:54:34;;;;;;;9.27;6.40;;;15.60;96.30;;;;;;5117625;28;20035;-72
2021/05/19 09:57:06;;;;;;;11.10;6.43;;;15.60;96.60;;;;;;5117497;28;20012;-78
2021/05/19 09:59:34;;;;;;;9.10;6.15;;;15.60;96.10;;;;;;5117054;28;20415;-72
2021/05/19 10:02:03;;;;;;;9.82;5.80;;;15.60;95.60;;;;;;5116988;28;20133;-72
2021/05/19 10:04:34;;;;;;;9.70;6.22;;;15.60;95.30;;;;;;5116711;28;20012;-72
2021/05/19 10:07:09;;;;;;;9.55;6.70;;;15.60;95.30;;;;;;5099405;28;20100;-72
2021/05/19 10:09:38;;;;;;;12.50;6.78;;;15.50;96.40;;;;;;5116770;28;20028;-72
2021/05/19 10:12:06;;;;;;;10.20;6.90;;;15.30;96.40;;;;;;5098348;28;20019;-78
2021/05/19 10:14:35;;;;;;;14.35;7.05;;;15.20;98.10;;;;;;5098506;28;20031;-76
2021/05/19 10:17:13;;;;;;;8.18;5.63;;;15.10;99.20;;;;;;5116375;28;20437;-73
2021/05/19 10:20:08;;;;;;;8.57;4.97;;;15.10;97.30;;;;;;5116572;28;20032;-73
2021/05/19 10:22:36;;;;;;;8.90;5.32;;;15.10;95.80;;;;;;5112882;28;20035;-74
2021/05/19 10:25:32;;;;;;;8.60;5.45;;;15.10;96.60;;;;;;5117479;28;20441;-74
2021/05/19 10:27:57;;;;;;;9.13;5.65;;;15.10;95.90;;;;;;5117761;28;20028;-74
2021/05/19 10:30:37;;;;;;;8.02;5.85;;;15.10;96.70;;;;;;5121104;28;20030;-74
2021/05/19 10:33:06;;;;;;;9.60;6.13;;;15.00;96.40;;;;;;5121143;28;20020;-74
2021/05/19 10:35:40;;;;;;;8.88;5.80;;;14.90;97.10;;;;;;5120794;28;20101;-74
2021/05/19 10:38:35;;;;;;;7.95;4.32;;;14.60;97.40;;;;;;5102512;28;20027;-73
2021/05/19 10:41:05;;;;;;;8.23;4.55;;;14.00;98.00;;;;;;5117930;28;20386;-73
2021/05/19 10:43:53;;;;;;;5.80;3.55;;;13.30;99.90;;;;;;5120290;28;20030;-73
2021/05/19 10:46:54;;;;;;;4.93;3.70;;;12.80;99.90;;;;;;5119607;28;20114;-73
2021/05/19 10:49:23;;;;;;;5.55;3.63;;;12.40;99.90;;;;;;5120444;28;20022;-73
2021/05/19 10:52:20;;;;;;;5.10;3.55;;;12.10;99.90;;;;;;5119172;28;20044;-72
2021/05/19 10:57:47;;;;;;;5.05;3.30;;;11.70;99.90;;;;;;5119989;28;20080;-76
2021/05/19 11:00:24;;;;;;;4.28;2.80;;;11.70;99.90;;;;;;5119664;28;20020;-72
2021/05/19 11:02:57;;;;;;;3.65;2.75;;;11.80;99.90;;;;;;5120540;28;20407;-73
2021/05/19 11:05:32;;;;;;;5.35;2.58;;;12.00;99.90;;;;;;5120606;28;20061;-73
2021/05/19 11:08:07;;;;;;;3.95;2.22;;;12.30;99.90;;;;;;5102224;28;20020;-74
2021/05/19 11:10:39;;;;;;;4.40;2.17;;;12.50;99.90;;;;;;5102123;28;20024;-73
2021/05/19 11:13:09;;;;;;;2.38;2.08;;;12.90;99.90;;;;;;5120001;28;20047;-73
2021/05/19 11:19:18;;;;;;;4.32;1.42;;;13.50;99.90;;;;;;5120042;28;20445;-73
2021/05/19 11:21:56;;;;;;;2.83;1.10;;;13.80;99.90;;;;;;5119180;28;20019;-73
2021/05/19 11:24:27;;;;;;;3.90;1.08;;;14.10;99.90;;;;;;5119579;28;20020;-73
2021/05/19 11:26:55;;;;;;;2.08;1.05;;;14.30;99.90;;;;;;5118829;28;20032;-73
2021/05/19 11:29:23;;;;;;;2.17;1.05;;;14.50;99.90;;;;;;5119153;28;20434;-72
2021/05/19 11:31:54;;;;;;;1.05;0.60;;;14.70;99.90;;;;;;5100653;28;20319;-73
2021/05/19 11:34:22;;;;;;;1.80;0.70;;;14.90;99.90;;;;;;5118611;28;20019;-73
2021/05/19 11:36:57;;;;;;;0.90;0.60;;;15.10;98.80;;;;;;5119213;28;20015;-73
2021/05/19 11:39:31;;;;;;;3.80;0.90;;;15.40;99.60;;;;;;5118325;28;20026;-73
2021/05/19 11:42:23;;;;;;;3.58;1.70;;;15.60;97.70;;;;;;5118745;28;20059;-73
2021/05/19 11:45:02;;;;;;;3.33;1.75;;;15.80;93.70;;;;;;5119449;28;20023;-72
2021/05/19 11:47:35;;;;;;;2.15;1.27;;;15.90;95.30;;;;;;5101424;28;20030;-73
2021/05/19 11:50:16;;;;;;;3.25;1.30;;;16.00;96.20;;;;;;5119470;28;20423;-73
2021/05/19 11:53:09;;;;;;;2.20;1.00;;;16.20;95.40;;;;;;5078837;28;20436;-73
2021/05/19 11:55:45;;;;;;;2.28;1.00;;;16.30;93.30;;;;;;5078532;28;20116;-72
2021/05/19 11:58:29;;;;;;;2.97;1.33;;;16.40;92.60;;;;;;5078940;28;20024;-73
2021/05/19 12:01:10;;;;;;;2.13;1.20;;;16.50;93.90;;;;;;5078244;28;20032;-73
2021/05/19 12:03:39;;;;;;;1.42;1.05;;;16.50;91.80;;;;;;5077673;28;20423;-73
2021/05/19 12:06:15;;;;;;;2.95;1.00;;;16.40;91.40;;;;;;5077505;28;20198;-73
2021/05/19 12:08:47;;;;;;;3.20;0.80;;;16.40;92.80;;;;;;5077526;28;20020;-73
2021/05/19 12:11:25;;;;;;;3.03;1.00;;;16.40;90.70;;;;;;5077361;28;20082;-73
2021/05/19 12:13:56;;;;;;;1.90;0.95;;;16.50;90.90;;;;;;5077351;28;20024;-73
2021/05/19 12:16:36;;;;;;;3.40;0.82;;;16.70;89.80;;;;;;5076144;28;20031;-73
2021/05/19 12:19:09;;;;;;;4.15;1.70;;;16.60;88.50;;;;;;5077214;28;20056;-73
2021/05/19 12:21:47;;;;;;;2.08;1.25;;;16.70;88.40;;;;;;5077153;28;20024;-73
2021/05/19 12:24:17;;;;;;;3.38;1.60;;;16.60;89.70;;;;;;5078252;28;20028;-73
2021/05/19 12:26:46;;;;;;;2.00;1.27;;;16.40;89.40;;;;;;5077997;28;20027;-73
2021/05/19 12:29:44;;;;;;;6.15;2.03;;;16.20;90.90;;;;;;5078303;28;20316;-73
2021/05/19 12:32:18;;;;;;;4.65;2.22;;;16.00;89.60;;;;;;5078173;28;20020;-72
2021/05/19 12:35:07;;;;;;;5.55;2.30;;;15.70;91.30;;;;;;5078322;28;20028;-71
2021/05/19 12:37:43;;;;;;;2.15;1.52;;;15.40;91.90;;;;;;5078367;28;20016;-72
2021/05/19 12:40:15;;;;;;;;;;;15.20;93.90;;;;;;5078743;28;20099;-73
2021/05/19 12:42:53;;;;;;;3.22;1.67;;;14.90;95.60;;;;;;5077871;28;19908;-72
2021/05/19 12:45:30;;;;;;;5.50;2.50;;;14.50;96.00;;;;;;5077201;28;20036;-72
2021/05/19 12:48:10;;;;;;;4.60;3.03;;;13.90;99.90;;;;;;5076720;28;20016;-72
2021/05/19 12:50:48;;;;;;;2.90;2.20;;;13.30;99.90;;;;;;5084141;28;20118;-73
2021/05/19 12:53:41;;;;;;;5.65;1.90;;;13.10;99.90;;;;;;5117343;28;20023;-73
2021/05/19 12:56:23;;;;;;;3.58;1.30;;;13.10;99.90;;;;;;5117085;28;20020;-73
2021/05/19 12:58:54;;;;;;;3.15;1.02;;;13.40;99.90;;;;;;5117434;28;20023;-73
2021/05/19 13:01:22;;;;;;;2.22;0.90;;;14.30;99.90;;;;;;5117490;28;20023;-72
2021/05/19 13:03:50;;;;;;;1.17;0.60;;;15.40;99.90;;;;;;5117108;28;20023;-72
2021/05/19 13:06:18;;;;;;;0.80;0.40;;;16.70;99.90;;;;;;5118017;28;20107;-73
2021/05/19 13:09:05;;;;;;;1.92;0.30;;;17.90;99.90;;;;;;5118313;28;20019;-73
2021/05/19 13:11:33;;;;;;;1.17;0.30;;;18.60;96.60;;;;;;5118595;28;20098;-73
2021/05/19 13:14:02;;;;;;;0.57;0.32;;;18.80;96.90;;;;;;5118047;28;20020;-73